Time;durP1;ratioP1;P1;durP2;ratioP2;P2;SDS_P1;SDS_P2;PMS_P1;PMS_P2;Temp;Humidity;BMP_temperature;BMP_pressure;BME280_temperature;BME280_humidity;BME280_pressure;Samples;Min_cycle;Max_cycle;Signal;HPM_P1;HPM_P2
2022/08/01 00:00:26;;;;;;;4.47;0.63;;;24.20;67.00;;;;;;4998842;28;20031;-43
2022/08/01 00:02:52;;;;;;;0.45;0.45;;;24.20;66.80;;;;;;4996979;28;20091;-42
2022/08/01 00:05:17;;;;;;;0.60;0.60;;;24.20;67.10;;;;;;4999942;28;20046;-42
2022/08/01 00:07:43;;;;;;;0.70;0.70;;;24.20;67.00;;;;;;4999860;28;20061;-42
2022/08/01 00:10:11;;;;;;;0.40;0.40;;;24.20;67.00;;;;;;4996512;28;20060;-42
2022/08/01 00:12:37;;;;;;;0.82;0.40;;;24.20;67.10;;;;;;4999251;28;20042;-42
2022/08/01 00:15:05;;;;;;;1.75;0.50;;;24.30;67.70;;;;;;5002329;28;20052;-42
2022/08/01 00:17:30;;;;;;;0.50;0.50;;;24.20;67.10;;;;;;4993908;28;20069;-42
2022/08/01 00:19:56;;;;;;;0.50;0.50;;;24.20;68.00;;;;;;4999471;28;20072;-41
2022/08/01 00:22:22;;;;;;;0.40;0.40;;;24.10;67.20;;;;;;5000160;28;20498;-41
2022/08/01 00:24:47;;;;;;;0.40;0.40;;;24.20;67.10;;;;;;5001807;28;20058;-41
2022/08/01 00:27:13;;;;;;;0.60;0.60;;;24.10;67.20;;;;;;4996587;28;20042;-42
2022/08/01 00:29:38;;;;;;;0.50;0.50;;;24.10;67.10;;;;;;5002968;28;20089;-42
2022/08/01 00:32:04;;;;;;;1.10;0.50;;;24.10;67.20;;;;;;4994195;28;20038;-42
2022/08/01 00:34:30;;;;;;;0.60;0.60;;;24.00;67.20;;;;;;4993119;28;20076;-41
2022/08/01 00:36:55;;;;;;;0.50;0.50;;;24.00;67.20;;;;;;4999571;28;20041;-42
2022/08/01 00:39:21;;;;;;;0.50;0.50;;;24.00;67.20;;;;;;4995805;28;20085;-37
2022/08/01 00:41:46;;;;;;;0.68;0.43;;;24.10;67.10;;;;;;4998734;28;20043;-42
2022/08/01 00:44:12;;;;;;;0.70;0.70;;;24.10;67.00;;;;;;4997200;28;20121;-41
2022/08/01 00:46:37;;;;;;;0.47;0.47;;;24.20;66.90;;;;;;5003208;28;20042;-42
2022/08/01 00:49:03;;;;;;;0.40;0.40;;;24.20;66.80;;;;;;5002407;28;20050;-42
2022/08/01 00:51:29;;;;;;;0.50;0.50;;;24.20;66.80;;;;;;5033167;28;20038;-41
2022/08/01 00:53:54;;;;;;;0.40;0.40;;;24.10;66.90;;;;;;5031594;28;20038;-42
2022/08/01 00:56:20;;;;;;;0.57;0.57;;;24.10;66.80;;;;;;4996232;28;20042;-42
2022/08/01 00:58:46;;;;;;;0.50;0.40;;;24.10;66.90;;;;;;4999283;28;20046;-43
2022/08/01 01:01:11;;;;;;;0.40;0.40;;;24.10;67.10;;;;;;5002270;28;20470;-41
2022/08/01 01:03:37;;;;;;;0.50;0.40;;;24.00;67.10;;;;;;5006150;28;20124;-41
2022/08/01 01:06:21;;;;;;;0.40;0.40;;;24.00;67.20;;;;;;5003980;28;20093;-43
2022/08/01 01:08:55;;;;;;;0.38;0.38;;;24.10;67.00;;;;;;4992654;28;20046;-42
2022/08/01 01:11:28;;;;;;;;;;;24.00;67.10;;;;;;5005224;28;20066;-42
2022/08/01 01:13:59;;;;;;;0.98;0.20;;;24.10;67.10;;;;;;5001966;28;19947;-42
2022/08/01 01:16:25;;;;;;;0.50;0.50;;;24.10;66.70;;;;;;4993493;28;20043;-42
2022/08/01 01:18:56;;;;;;;0.50;0.50;;;24.10;66.70;;;;;;5029128;28;20052;-42
2022/08/01 01:21:21;;;;;;;0.47;0.47;;;24.00;66.90;;;;;;4996883;28;20070;-41
2022/08/01 01:24:24;;;;;;;0.40;0.40;;;24.00;67.00;;;;;;4996684;28;20076;-42
2022/08/01 01:27:29;;;;;;;0.52;0.52;;;24.00;66.90;;;;;;5003034;28;20124;-41
2022/08/01 01:29:55;;;;;;;;;;;24.00;67.00;;;;;;4981666;28;20431;-41
2022/08/01 01:32:21;;;;;;;0.30;0.30;;;24.00;66.70;;;;;;4959230;28;19953;-41
2022/08/01 01:34:47;;;;;;;0.50;0.50;;;24.00;67.00;;;;;;4987017;28;20088;-42
2022/08/01 01:37:17;;;;;;;0.50;0.45;;;24.00;66.80;;;;;;4989078;28;20053;-42
2022/08/01 01:39:43;;;;;;;0.40;0.40;;;24.00;66.70;;;;;;4972712;28;20519;-41
2022/08/01 01:42:08;;;;;;;0.30;0.30;;;24.00;67.10;;;;;;4973485;28;20594;-41
2022/08/01 01:44:34;;;;;;;0.30;0.30;;;24.00;67.00;;;;;;4967829;28;20047;-43
2022/08/01 01:46:59;;;;;;;0.35;0.35;;;23.90;66.90;;;;;;4973196;28;20152;-42
2022/08/01 01:49:26;;;;;;;0.28;0.28;;;24.00;67.00;;;;;;4971762;28;20101;-41
2022/08/01 01:51:53;;;;;;;0.40;0.40;;;24.00;66.70;;;;;;4973366;28;20050;-41
2022/08/01 01:54:18;;;;;;;0.30;0.30;;;24.10;66.50;;;;;;4973522;28;20038;-42
2022/08/01 01:56:50;;;;;;;0.30;0.30;;;24.00;66.50;;;;;;4985546;28;20193;-41
2022/08/01 01:59:36;;;;;;;0.40;0.40;;;24.10;66.70;;;;;;4989072;28;20050;-41
2022/08/01 02:02:03;;;;;;;0.22;0.22;;;24.00;66.60;;;;;;4973578;28;20058;-43
2022/08/01 02:04:28;;;;;;;0.47;0.47;;;24.00;66.50;;;;;;4971485;28;20046;-41
2022/08/01 02:06:54;;;;;;;0.43;0.40;;;24.00;66.40;;;;;;5036326;28;20049;-43
2022/08/01 02:09:20;;;;;;;0.40;0.40;;;24.00;66.50;;;;;;5006049;28;20076;-41
2022/08/01 02:11:49;;;;;;;0.47;0.47;;;24.00;66.40;;;;;;4996693;28;20479;-42
2022/08/01 02:14:16;;;;;;;0.20;0.20;;;24.00;66.40;;;;;;4994458;28;20411;-42
2022/08/01 02:16:44;;;;;;;0.40;0.40;;;24.00;67.10;;;;;;4999279;28;20042;-42
2022/08/01 02:19:10;;;;;;;0.30;0.30;;;24.10;66.20;;;;;;5024327;28;20515;-42
2022/08/01 02:21:46;;;;;;;0.30;0.30;;;24.10;66.10;;;;;;4995291;28;20193;-42
2022/08/01 02:24:20;;;;;;;0.30;0.30;;;24.10;66.10;;;;;;4995904;28;20046;-42
2022/08/01 02:26:50;;;;;;;0.30;0.30;;;24.00;66.50;;;;;;4993542;28;20042;-42
2022/08/01 02:29:42;;;;;;;0.22;0.22;;;24.10;66.10;;;;;;5005507;28;20065;-42
2022/08/01 02:32:08;;;;;;;0.30;0.30;;;24.10;65.90;;;;;;4989142;28;20034;-42
2022/08/01 02:34:35;;;;;;;0.43;0.38;;;24.10;66.00;;;;;;5004747;28;20095;-41
2022/08/01 02:37:01;;;;;;;0.30;0.30;;;24.10;65.90;;;;;;4995986;28;20129;-42
2022/08/01 02:39:27;;;;;;;0.30;0.30;;;24.00;66.20;;;;;;5012845;28;20129;-42
2022/08/01 02:41:55;;;;;;;0.40;0.40;;;24.00;66.30;;;;;;5010222;28;20045;-41
2022/08/01 02:44:27;;;;;;;0.22;0.22;;;24.00;66.40;;;;;;4994916;28;20045;-42
2022/08/01 02:46:55;;;;;;;0.20;0.20;;;24.00;66.20;;;;;;5026115;28;20049;-42
2022/08/01 02:49:20;;;;;;;0.28;0.28;;;24.00;66.20;;;;;;5004612;28;20042;-42
2022/08/01 02:51:46;;;;;;;0.30;0.30;;;24.00;66.30;;;;;;5004887;28;20045;-42
2022/08/01 02:54:12;;;;;;;0.35;0.35;;;24.00;66.30;;;;;;4994356;28;20054;-42
2022/08/01 02:56:38;;;;;;;0.20;0.20;;;24.00;66.20;;;;;;5008440;28;20121;-45
2022/08/01 02:59:05;;;;;;;0.43;0.30;;;24.00;66.30;;;;;;5022437;28;20037;-42
2022/08/01 03:01:32;;;;;;;0.30;0.30;;;24.00;66.40;;;;;;5017767;28;20559;-41
2022/08/01 03:03:57;;;;;;;0.43;0.43;;;24.00;66.20;;;;;;5021467;28;20073;-42
2022/08/01 03:06:23;;;;;;;0.25;0.25;;;24.00;66.50;;;;;;4998360;28;20074;-42
2022/08/01 03:08:49;;;;;;;0.20;0.20;;;24.00;66.40;;;;;;5003981;28;22043;-42
2022/08/01 03:11:14;;;;;;;0.30;0.30;;;24.00;66.50;;;;;;5005388;28;20077;-41
2022/08/01 03:13:41;;;;;;;0.30;0.30;;;23.90;66.40;;;;;;4991278;28;20519;-42
2022/08/01 03:16:07;;;;;;;0.30;0.30;;;23.90;66.50;;;;;;5006760;28;20045;-42
2022/08/01 03:18:32;;;;;;;0.30;0.30;;;24.00;66.10;;;;;;5005266;28;20046;-41
2022/08/01 03:20:58;;;;;;;0.50;0.50;;;24.00;66.10;;;;;;5006866;28;20093;-42
2022/08/01 03:23:23;;;;;;;0.50;0.50;;;24.00;66.30;;;;;;4994831;28;20049;-42
2022/08/01 03:25:49;;;;;;;0.50;0.30;;;24.00;66.00;;;;;;5038571;28;20387;-42
2022/08/01 03:28:14;;;;;;;0.30;0.30;;;24.00;66.20;;;;;;5006834;28;20200;-42
2022/08/01 03:30:40;;;;;;;0.40;0.40;;;23.90;66.40;;;;;;5029658;28;20054;-42
2022/08/01 03:33:06;;;;;;;0.30;0.30;;;23.90;66.50;;;;;;5026890;28;20050;-42
2022/08/01 03:35:36;;;;;;;0.63;0.60;;;24.00;66.10;;;;;;4994839;28;20462;-45
2022/08/01 03:38:01;;;;;;;0.30;0.30;;;24.00;66.10;;;;;;4992316;28;20050;-42
2022/08/01 03:40:41;;;;;;;0.70;0.30;;;24.00;65.90;;;;;;4996339;28;20166;-42
2022/08/01 03:43:11;;;;;;;0.30;0.30;;;24.00;66.20;;;;;;5012603;28;20503;-42
2022/08/01 03:45:38;;;;;;;0.28;0.28;;;24.00;66.10;;;;;;4996929;28;20472;-40
2022/08/01 03:48:15;;;;;;;0.20;0.20;;;24.00;65.80;;;;;;4998669;28;20046;-42
2022/08/01 03:50:42;;;;;;;0.20;0.20;;;24.00;65.80;;;;;;5004435;28;20531;-42
2022/08/01 03:53:09;;;;;;;0.22;0.20;;;24.00;66.00;;;;;;5007848;28;20090;-42
2022/08/01 03:55:35;;;;;;;0.20;0.20;;;24.00;65.80;;;;;;4996244;28;20057;-41
2022/08/01 03:58:00;;;;;;;0.38;0.20;;;24.00;66.00;;;;;;5023262;28;20038;-42
2022/08/01 04:00:26;;;;;;;0.20;0.20;;;24.00;65.80;;;;;;5000940;28;20042;-51
2022/08/01 04:02:52;;;;;;;0.30;0.30;;;24.00;65.70;;;;;;4999417;28;20085;-56
2022/08/01 04:05:18;;;;;;;0.52;0.38;;;24.10;65.60;;;;;;5023733;28;20058;-57
2022/08/01 04:07:49;;;;;;;0.28;0.28;;;24.10;65.60;;;;;;5008479;28;20038;-52
2022/08/01 04:10:15;;;;;;;0.25;0.25;;;24.10;65.80;;;;;;5000044;28;20057;-56
2022/08/01 04:12:41;;;;;;;0.30;0.30;;;24.00;65.70;;;;;;5036064;28;20046;-60
2022/08/01 04:15:07;;;;;;;0.20;0.20;;;24.00;65.90;;;;;;5000503;28;20507;-55
2022/08/01 04:17:32;;;;;;;0.20;0.20;;;24.00;65.90;;;;;;4994143;28;20042;-55
2022/08/01 04:19:58;;;;;;;0.30;0.30;;;24.00;65.90;;;;;;5009635;28;20050;-57
2022/08/01 04:22:23;;;;;;;0.30;0.20;;;24.00;65.90;;;;;;5008374;28;20042;-59
2022/08/01 04:24:52;;;;;;;0.32;0.30;;;24.00;65.70;;;;;;5004557;28;20415;-47
2022/08/01 04:27:21;;;;;;;0.30;0.30;;;24.00;66.50;;;;;;5033481;28;20038;-46
2022/08/01 04:29:48;;;;;;;0.22;0.22;;;24.00;65.70;;;;;;4994512;28;20046;-47
2022/08/01 04:32:13;;;;;;;0.13;0.13;;;24.00;65.80;;;;;;4994940;28;20053;-60
2022/08/01 04:34:39;;;;;;;0.20;0.20;;;24.00;66.60;;;;;;5007369;28;20118;-60
2022/08/01 04:37:05;;;;;;;0.20;0.20;;;24.00;65.80;;;;;;5012226;28;20034;-47
2022/08/01 04:39:31;;;;;;;0.55;0.20;;;24.00;65.60;;;;;;5013327;28;20480;-48
2022/08/01 04:41:58;;;;;;;0.30;0.30;;;24.00;65.70;;;;;;4997338;28;20053;-55
2022/08/01 04:44:24;;;;;;;0.20;0.20;;;24.00;65.60;;;;;;5028568;28;20124;-50
2022/08/01 04:46:50;;;;;;;0.20;0.20;;;24.00;65.50;;;;;;5008201;28;20136;-53
2022/08/01 04:49:16;;;;;;;0.20;0.20;;;24.00;65.50;;;;;;4992887;28;20133;-56
2022/08/01 04:51:51;;;;;;;0.20;0.20;;;24.00;65.50;;;;;;5015672;28;20047;-55
2022/08/01 04:54:17;;;;;;;0.20;0.20;;;24.00;65.50;;;;;;4997676;28;20446;-62
2022/08/01 04:56:42;;;;;;;0.10;0.10;;;24.00;65.50;;;;;;5004053;28;20054;-47
2022/08/01 05:01:52;;;;;;;0.20;0.20;;;24.00;65.50;;;;;;5009251;28;20045;-53
2022/08/01 05:04:18;;;;;;;0.30;0.30;;;24.00;65.30;;;;;;5009759;28;20046;-61
2022/08/01 05:06:43;;;;;;;0.13;0.13;;;24.00;65.40;;;;;;5004602;28;20046;-51
2022/08/01 05:09:09;;;;;;;0.30;0.30;;;24.00;65.30;;;;;;5005440;28;20521;-51
2022/08/01 05:11:35;;;;;;;0.20;0.20;;;24.00;65.50;;;;;;5007816;28;20816;-53
2022/08/01 05:14:00;;;;;;;0.20;0.20;;;24.00;65.50;;;;;;4995094;28;20046;-61
2022/08/01 05:16:26;;;;;;;0.15;0.15;;;24.00;65.40;;;;;;5008272;28;20045;-54
2022/08/01 05:18:51;;;;;;;0.15;0.15;;;23.90;65.30;;;;;;4996964;28;20045;-56
2022/08/01 05:21:17;;;;;;;0.20;0.20;;;24.00;65.30;;;;;;5002642;28;20128;-59
2022/08/01 05:23:43;;;;;;;0.20;0.20;;;24.00;65.40;;;;;;5027408;28;20049;-59
2022/08/01 05:26:09;;;;;;;0.20;0.20;;;24.00;65.40;;;;;;5007900;28;20100;-60
2022/08/01 05:28:35;;;;;;;0.22;0.20;;;24.00;65.30;;;;;;5005130;28;20048;-54
2022/08/01 05:31:01;;;;;;;0.20;0.20;;;23.90;65.70;;;;;;5010434;28;20535;-56
2022/08/01 05:33:26;;;;;;;0.15;0.15;;;23.90;65.50;;;;;;5010219;28;20050;-53
2022/08/01 05:35:52;;;;;;;0.60;0.28;;;24.00;65.90;;;;;;5003652;28;20502;-56
2022/08/01 05:38:17;;;;;;;0.10;0.10;;;23.70;66.20;;;;;;4653427;28;10000598;-44
2022/08/01 05:40:43;;;;;;;0.25;0.25;;;23.50;66.50;;;;;;4999330;28;20050;-52
2022/08/01 05:43:08;;;;;;;0.30;0.30;;;23.30;67.30;;;;;;4655472;28;10000003;-50
2022/08/01 05:45:34;;;;;;;0.17;0.17;;;23.20;67.70;;;;;;5002353;28;20173;-53
2022/08/01 05:47:59;;;;;;;0.52;0.10;;;23.10;67.60;;;;;;4994198;28;20419;-53
2022/08/01 05:50:25;;;;;;;0.17;0.17;;;23.10;68.10;;;;;;5000998;28;20038;-49
2022/08/01 05:52:51;;;;;;;0.10;0.10;;;23.10;68.00;;;;;;5001362;28;20188;-43
2022/08/01 05:55:16;;;;;;;1.13;0.10;;;23.00;68.30;;;;;;4999346;28;20107;-47
2022/08/01 05:57:42;;;;;;;0.10;0.10;;;22.80;68.60;;;;;;4996615;28;20049;-52
2022/08/01 06:00:09;;;;;;;0.43;0.13;;;22.80;68.60;;;;;;4994929;28;20046;-49
2022/08/01 06:02:39;;;;;;;0.28;0.28;;;22.90;68.80;;;;;;5000220;28;20518;-45
2022/08/01 06:05:05;;;;;;;0.20;0.20;;;22.80;68.90;;;;;;4988962;28;20173;-50
2022/08/01 06:07:30;;;;;;;0.17;0.17;;;22.80;69.00;;;;;;4994960;28;20447;-50
2022/08/01 06:09:56;;;;;;;0.52;0.30;;;22.70;69.20;;;;;;4989212;28;20052;-43
2022/08/01 06:12:22;;;;;;;0.40;0.40;;;22.80;69.20;;;;;;4997506;28;20064;-52
2022/08/01 06:14:47;;;;;;;1.27;0.10;;;22.60;69.60;;;;;;4994695;28;20037;-48
2022/08/01 06:17:13;;;;;;;0.13;0.13;;;22.60;69.90;;;;;;4996165;28;20042;-56
2022/08/01 06:19:38;;;;;;;0.20;0.20;;;22.60;69.90;;;;;;5000798;28;20051;-39
2022/08/01 06:22:04;;;;;;;0.30;0.30;;;22.60;69.80;;;;;;4987940;28;20034;-37
2022/08/01 06:24:29;;;;;;;0.25;0.20;;;22.60;69.90;;;;;;4987141;28;20081;-48
2022/08/01 06:26:55;;;;;;;0.20;0.20;;;22.50;70.20;;;;;;4988330;28;20523;-53
2022/08/01 06:29:20;;;;;;;0.20;0.20;;;22.50;70.10;;;;;;4987958;28;20042;-47
2022/08/01 06:31:46;;;;;;;0.10;0.10;;;22.50;69.90;;;;;;4993019;28;20081;-45
2022/08/01 06:34:12;;;;;;;0.10;0.10;;;22.60;69.70;;;;;;4995791;28;20145;-44
2022/08/01 06:36:37;;;;;;;0.28;0.10;;;22.50;69.90;;;;;;4982641;28;20491;-52
2022/08/01 06:39:03;;;;;;;0.20;0.20;;;22.40;70.20;;;;;;4984884;28;20050;-45
2022/08/01 06:41:28;;;;;;;0.10;0.10;;;22.40;71.20;;;;;;4996524;28;20485;-49
2022/08/01 06:43:54;;;;;;;0.10;0.10;;;22.40;70.70;;;;;;4988795;28;20047;-43
2022/08/01 06:46:19;;;;;;;0.13;0.10;;;22.40;71.00;;;;;;4991515;28;20053;-46
2022/08/01 06:48:45;;;;;;;0.00;0.00;;;22.30;71.20;;;;;;4989488;28;20061;-41
2022/08/01 06:51:15;;;;;;;0.20;0.10;;;22.30;71.70;;;;;;4989660;28;20085;-41
2022/08/01 06:53:40;;;;;;;0.10;0.10;;;22.30;71.80;;;;;;4986340;28;20046;-41
2022/08/01 06:56:06;;;;;;;0.52;0.10;;;22.30;71.90;;;;;;4999716;28;20045;-43
2022/08/01 06:58:32;;;;;;;0.20;0.13;;;22.30;71.90;;;;;;4992761;28;20049;-42
2022/08/01 07:00:57;;;;;;;0.17;0.10;;;22.30;71.90;;;;;;4997423;28;20050;-41
2022/08/01 07:03:23;;;;;;;0.00;0.00;;;22.30;71.70;;;;;;5003963;28;20038;-41
2022/08/01 07:05:48;;;;;;;0.10;0.10;;;22.30;71.40;;;;;;4995827;28;20042;-41
2022/08/01 07:08:14;;;;;;;1.75;0.10;;;22.40;71.30;;;;;;5002724;28;20438;-41
2022/08/01 07:10:40;;;;;;;0.10;0.10;;;22.50;71.70;;;;;;4995847;28;20064;-41
2022/08/01 07:13:05;;;;;;;0.10;0.10;;;22.50;70.70;;;;;;5006793;28;20049;-42
2022/08/01 07:15:31;;;;;;;0.10;0.03;;;22.60;70.60;;;;;;5006061;28;20049;-42
2022/08/01 07:17:57;;;;;;;0.10;0.08;;;22.60;70.30;;;;;;5005411;28;20041;-42
2022/08/01 07:20:22;;;;;;;0.40;0.20;;;22.60;70.10;;;;;;5005789;28;20045;-41
2022/08/01 07:22:48;;;;;;;0.25;0.10;;;22.70;70.00;;;;;;5005684;28;20082;-35
2022/08/01 07:25:13;;;;;;;0.20;0.10;;;22.70;70.70;;;;;;5009888;28;20046;-45
2022/08/01 07:27:39;;;;;;;0.10;0.10;;;22.70;69.70;;;;;;5004319;28;20503;-41
2022/08/01 07:30:05;;;;;;;0.10;0.10;;;22.70;69.60;;;;;;5006146;28;20061;-41
2022/08/01 07:32:31;;;;;;;0.20;0.10;;;22.70;69.50;;;;;;5003146;28;20046;-41
2022/08/01 07:34:56;;;;;;;0.28;0.10;;;22.80;69.50;;;;;;5003176;28;20388;-41
2022/08/01 07:37:23;;;;;;;0.15;0.10;;;22.80;69.30;;;;;;5007795;28;20641;-41
2022/08/01 07:39:49;;;;;;;0.10;0.10;;;22.80;69.20;;;;;;5006036;28;20050;-39
2022/08/01 07:42:14;;;;;;;0.28;0.05;;;22.80;69.10;;;;;;5004797;28;20479;-41
2022/08/01 07:44:40;;;;;;;0.35;0.35;;;22.80;69.00;;;;;;5000429;28;20100;-44
2022/08/01 07:47:06;;;;;;;0.50;0.10;;;22.80;69.00;;;;;;5004229;28;20399;-42
2022/08/01 07:49:31;;;;;;;0.10;0.08;;;22.80;68.90;;;;;;5005895;28;20128;-41
2022/08/01 07:51:57;;;;;;;0.32;0.32;;;22.90;68.80;;;;;;5007471;28;20803;-42
2022/08/01 07:54:23;;;;;;;0.10;0.10;;;22.90;68.80;;;;;;5007783;28;20038;-41
2022/08/01 07:56:50;;;;;;;0.22;0.10;;;22.80;68.60;;;;;;5004957;28;20038;-41
2022/08/01 07:59:15;;;;;;;0.75;0.50;;;22.90;68.50;;;;;;5006908;28;20172;-41
2022/08/01 08:01:41;;;;;;;0.20;0.13;;;22.90;68.60;;;;;;5007585;28;20058;-41
2022/08/01 08:04:07;;;;;;;0.10;0.10;;;22.90;68.50;;;;;;5006207;28;20046;-41
2022/08/01 08:06:32;;;;;;;0.40;0.10;;;22.90;68.40;;;;;;5007052;28;20493;-42
2022/08/01 08:08:58;;;;;;;0.13;0.10;;;22.90;68.40;;;;;;5002646;28;20042;-41
2022/08/01 08:11:23;;;;;;;0.15;0.15;;;22.90;68.30;;;;;;5006408;28;20514;-42
2022/08/01 08:13:49;;;;;;;0.10;0.10;;;22.90;68.30;;;;;;5002020;28;20086;-41
2022/08/01 08:16:15;;;;;;;0.22;0.20;;;23.00;68.20;;;;;;5005550;28;20057;-24
2022/08/01 08:18:40;;;;;;;0.20;0.13;;;23.00;68.10;;;;;;5006379;28;20041;-22
2022/08/01 08:21:06;;;;;;;0.10;0.10;;;23.00;68.90;;;;;;5004758;28;20561;-21
2022/08/01 08:26:15;;;;;;;0.40;0.10;;;23.00;68.00;;;;;;5003811;28;20453;-21
2022/08/01 08:28:41;;;;;;;0.20;0.00;;;23.00;68.00;;;;;;5005008;28;20121;-22
2022/08/01 08:31:07;;;;;;;0.20;0.13;;;23.10;67.50;;;;;;4644330;28;10000634;-21
2022/08/01 08:33:33;;;;;;;0.10;0.10;;;23.20;67.20;;;;;;4994732;28;20042;-20
2022/08/01 08:35:59;;;;;;;1.60;0.10;;;23.20;67.30;;;;;;4999940;28;20041;-20
2022/08/01 08:38:26;;;;;;;0.75;0.20;;;23.20;67.60;;;;;;5000133;28;20037;-22
2022/08/01 08:40:52;;;;;;;0.50;0.10;;;23.30;66.90;;;;;;5000264;28;20060;-23
2022/08/01 08:43:18;;;;;;;2.85;0.17;;;23.30;67.60;;;;;;5002755;28;20553;-22
2022/08/01 08:45:43;;;;;;;0.52;0.45;;;23.30;67.80;;;;;;5030158;28;20036;-22
2022/08/01 08:48:09;;;;;;;0.40;0.10;;;23.30;67.40;;;;;;4998460;28;20039;-22
2022/08/01 08:50:34;;;;;;;0.10;0.10;;;23.30;68.20;;;;;;5004391;28;20418;-28
2022/08/01 08:53:00;;;;;;;0.28;0.10;;;23.40;67.80;;;;;;4986957;28;20192;-23
2022/08/01 08:55:25;;;;;;;0.03;0.03;;;23.40;67.70;;;;;;5029921;28;20030;-23
2022/08/01 08:57:52;;;;;;;0.15;0.10;;;23.40;68.00;;;;;;5001514;28;20046;-23
2022/08/01 09:00:18;;;;;;;3.60;0.17;;;23.40;67.80;;;;;;4998851;28;20052;-21
2022/08/01 09:02:46;;;;;;;1.90;0.28;;;23.40;67.80;;;;;;4990828;28;20046;-22
2022/08/01 09:05:11;;;;;;;0.85;0.60;;;23.40;67.90;;;;;;4991380;28;20617;-22
2022/08/01 09:07:37;;;;;;;1.02;0.20;;;23.40;68.20;;;;;;4993226;28;20053;-21
2022/08/01 09:10:03;;;;;;;1.48;0.20;;;23.40;68.40;;;;;;4999531;28;20026;-22
2022/08/01 09:12:29;;;;;;;2.03;0.22;;;23.40;68.30;;;;;;5002892;28;20045;-22
2022/08/01 09:14:54;;;;;;;0.20;0.20;;;23.40;68.40;;;;;;5031242;28;20035;-22
2022/08/01 09:17:20;;;;;;;1.95;0.57;;;23.40;68.10;;;;;;4994860;28;20161;-21
2022/08/01 09:19:55;;;;;;;0.93;0.22;;;23.40;68.10;;;;;;4999431;28;20030;-22
2022/08/01 09:22:23;;;;;;;1.25;0.20;;;23.40;68.10;;;;;;5002602;28;20442;-28
2022/08/01 09:25:05;;;;;;;1.23;0.22;;;23.40;68.20;;;;;;4996840;28;20380;-21
2022/08/01 09:27:31;;;;;;;5.00;0.30;;;23.50;68.10;;;;;;4997194;28;20109;-22
2022/08/01 09:30:07;;;;;;;0.63;0.43;;;23.50;67.90;;;;;;4996827;28;20068;-23
2022/08/01 09:32:33;;;;;;;0.32;0.32;;;23.50;68.20;;;;;;5032840;28;20124;-21
2022/08/01 09:35:19;;;;;;;0.20;0.20;;;23.50;67.70;;;;;;4999855;28;20200;-22
2022/08/01 09:37:45;;;;;;;0.40;0.40;;;23.50;68.00;;;;;;5012467;28;20042;-22
2022/08/01 09:40:10;;;;;;;0.30;0.30;;;23.50;67.60;;;;;;4999142;28;20125;-24
2022/08/01 09:42:36;;;;;;;0.30;0.30;;;23.50;67.70;;;;;;5000204;28;20044;-22
2022/08/01 09:45:02;;;;;;;1.08;0.38;;;23.50;67.50;;;;;;4999418;28;20073;-21
2022/08/01 09:47:40;;;;;;;0.30;0.30;;;23.50;67.40;;;;;;4991732;28;20504;-21
2022/08/01 09:50:06;;;;;;;0.82;0.30;;;23.50;67.10;;;;;;4997421;28;20037;-21
2022/08/01 09:52:32;;;;;;;0.43;0.40;;;23.50;67.00;;;;;;4997976;28;20419;-21
2022/08/01 09:55:00;;;;;;;0.38;0.38;;;23.60;66.90;;;;;;5000117;28;20510;-22
2022/08/01 09:57:26;;;;;;;1.05;0.40;;;23.60;66.70;;;;;;5000843;28;20073;-23
2022/08/01 09:59:53;;;;;;;0.40;0.38;;;23.60;66.60;;;;;;5000000;28;20055;-22
2022/08/01 10:02:35;;;;;;;0.60;0.60;;;23.60;66.50;;;;;;5000301;28;20053;-22
2022/08/01 10:05:02;;;;;;;0.40;0.40;;;23.60;66.70;;;;;;4998121;28;21896;-22
2022/08/01 10:07:28;;;;;;;0.40;0.40;;;23.60;66.50;;;;;;5000781;28;20043;-23
2022/08/01 10:09:53;;;;;;;0.50;0.45;;;23.60;66.80;;;;;;5001117;28;20050;-20
2022/08/01 10:12:20;;;;;;;0.40;0.40;;;23.60;66.60;;;;;;5000364;28;20630;-22
2022/08/01 10:14:49;;;;;;;0.50;0.50;;;23.60;66.80;;;;;;4997762;28;20038;-21
2022/08/01 10:17:16;;;;;;;0.43;0.43;;;23.60;66.80;;;;;;5012724;28;20042;-21
2022/08/01 10:19:43;;;;;;;0.60;0.32;;;23.60;66.80;;;;;;4993224;28;20046;-21
2022/08/01 10:22:09;;;;;;;0.65;0.50;;;23.70;67.60;;;;;;4993907;28;20037;-21
2022/08/01 10:24:39;;;;;;;1.17;0.30;;;23.70;67.40;;;;;;4997970;28;20054;-21
2022/08/01 10:27:08;;;;;;;0.68;0.47;;;23.70;67.30;;;;;;4997939;28;20050;-21
2022/08/01 10:29:41;;;;;;;0.40;0.40;;;23.70;67.40;;;;;;4995440;28;20058;-25
2022/08/01 10:32:09;;;;;;;1.02;0.60;;;23.60;67.50;;;;;;5001018;28;20111;-23
2022/08/01 10:34:35;;;;;;;0.70;0.60;;;23.70;68.20;;;;;;4995736;28;20129;-21
2022/08/01 10:37:00;;;;;;;0.68;0.68;;;23.70;67.10;;;;;;4993363;28;20033;-21
2022/08/01 10:39:28;;;;;;;1.38;0.40;;;23.70;66.90;;;;;;5011736;28;20077;-21
2022/08/01 10:41:54;;;;;;;0.68;0.43;;;23.60;67.50;;;;;;5000990;28;20034;-21
2022/08/01 10:44:19;;;;;;;0.40;0.40;;;23.60;67.50;;;;;;5030039;28;20981;-21
2022/08/01 10:46:46;;;;;;;0.50;0.50;;;23.60;67.10;;;;;;5004436;28;20038;-21
2022/08/01 10:49:14;;;;;;;0.52;0.50;;;23.60;66.60;;;;;;5005133;28;20034;-28
2022/08/01 10:51:39;;;;;;;1.02;0.82;;;23.60;65.90;;;;;;5034829;28;20502;-21
2022/08/01 10:54:06;;;;;;;0.43;0.43;;;23.60;65.80;;;;;;4998041;28;20072;-20
2022/08/01 10:56:49;;;;;;;0.85;0.60;;;23.60;65.80;;;;;;5004223;28;20076;-21
2022/08/01 10:59:39;;;;;;;0.68;0.60;;;23.60;66.80;;;;;;4999084;28;20035;-20
2022/08/01 11:02:05;;;;;;;0.60;0.60;;;23.60;66.90;;;;;;5003136;28;20069;-21
2022/08/01 11:04:42;;;;;;;0.88;0.60;;;23.60;67.00;;;;;;5001785;28;20062;-21
2022/08/01 11:07:13;;;;;;;0.60;0.60;;;23.60;67.60;;;;;;5007986;28;20038;-21
2022/08/01 11:09:43;;;;;;;2.83;0.60;;;23.60;66.80;;;;;;5005841;28;20548;-21
2022/08/01 11:12:11;;;;;;;0.70;0.70;;;23.60;66.90;;;;;;5004437;28;20045;-24
2022/08/01 11:14:58;;;;;;;0.90;0.70;;;23.60;66.80;;;;;;5002526;28;20042;-25
2022/08/01 11:17:37;;;;;;;0.75;0.75;;;23.50;67.30;;;;;;5002823;28;20042;-21
2022/08/01 11:20:16;;;;;;;0.70;0.70;;;23.60;67.50;;;;;;5005863;28;20093;-20
2022/08/01 11:23:15;;;;;;;1.17;0.80;;;23.60;66.80;;;;;;5006740;28;20046;-21
2022/08/01 11:25:45;;;;;;;2.67;0.60;;;23.70;67.20;;;;;;4994445;28;20608;-20
2022/08/01 11:28:15;;;;;;;0.75;0.60;;;23.60;67.10;;;;;;5000347;28;20050;-21
2022/08/01 11:30:44;;;;;;;0.55;0.55;;;23.60;66.80;;;;;;5001564;28;20046;-23
2022/08/01 11:33:10;;;;;;;2.15;0.70;;;23.70;66.70;;;;;;5001846;28;20145;-20
2022/08/01 11:35:36;;;;;;;1.25;0.60;;;23.70;67.00;;;;;;5004865;28;20041;-23
2022/08/01 11:38:24;;;;;;;1.08;0.70;;;23.70;67.20;;;;;;5001833;28;20670;-21
2022/08/01 11:41:29;;;;;;;1.55;0.80;;;23.70;67.20;;;;;;4998562;28;20038;-21
2022/08/01 11:43:58;;;;;;;0.55;0.55;;;23.70;67.30;;;;;;5002852;28;20053;-21
2022/08/01 11:46:45;;;;;;;0.55;0.55;;;23.80;66.80;;;;;;5003733;28;20045;-21
2022/08/01 11:49:24;;;;;;;0.65;0.65;;;23.70;66.60;;;;;;5004170;28;20038;-21
2022/08/01 11:51:57;;;;;;;8.35;0.70;;;23.80;67.20;;;;;;5002388;28;20065;-20
2022/08/01 11:54:31;;;;;;;1.02;0.75;;;23.80;66.70;;;;;;5001116;28;20054;-21
2022/08/01 11:57:01;;;;;;;0.85;0.70;;;23.90;68.00;;;;;;5002953;28;20038;-20
2022/08/01 11:59:26;;;;;;;1.23;0.98;;;23.90;67.10;;;;;;5002597;28;20053;-20
2022/08/01 12:01:52;;;;;;;0.70;0.70;;;23.90;67.40;;;;;;4998229;28;20129;-21
2022/08/01 12:04:18;;;;;;;1.70;0.82;;;23.90;66.40;;;;;;4999374;28;20034;-20
2022/08/01 12:06:44;;;;;;;0.90;0.82;;;23.80;67.00;;;;;;5000321;28;20077;-26
2022/08/01 12:09:16;;;;;;;0.80;0.80;;;23.80;67.40;;;;;;5004976;28;20132;-21
2022/08/01 12:11:42;;;;;;;0.60;0.60;;;23.80;66.60;;;;;;5006263;28;20068;-21
2022/08/01 12:14:07;;;;;;;0.80;0.80;;;23.90;66.40;;;;;;5018432;28;20046;-21
2022/08/01 12:16:33;;;;;;;0.90;0.80;;;23.90;66.00;;;;;;5010202;28;20060;-24
2022/08/01 12:18:59;;;;;;;1.10;0.70;;;23.90;66.00;;;;;;5005168;28;20041;-26
2022/08/01 12:21:24;;;;;;;0.65;0.65;;;23.90;66.10;;;;;;4983317;28;20053;-20
2022/08/01 12:24:08;;;;;;;0.60;0.60;;;23.90;66.40;;;;;;4998763;28;20049;-27
2022/08/01 12:26:40;;;;;;;0.97;0.60;;;23.90;66.50;;;;;;5003525;28;20042;-22
2022/08/01 12:29:06;;;;;;;0.70;0.70;;;23.90;66.30;;;;;;5002160;28;20673;-20
2022/08/01 12:31:35;;;;;;;0.70;0.70;;;23.90;66.80;;;;;;5002991;28;20107;-22
2022/08/01 12:34:28;;;;;;;0.85;0.70;;;24.00;65.40;;;;;;5004738;28;20144;-21
2022/08/01 12:36:58;;;;;;;0.60;0.60;;;24.00;65.20;;;;;;4999121;28;20124;-21
2022/08/01 12:39:30;;;;;;;0.60;0.60;;;23.90;65.40;;;;;;5001559;28;20046;-22
2022/08/01 12:41:56;;;;;;;0.77;0.77;;;24.00;66.70;;;;;;4995003;28;20093;-29
2022/08/01 12:44:21;;;;;;;0.55;0.55;;;24.00;66.00;;;;;;5001855;28;20729;-21
2022/08/01 12:46:47;;;;;;;0.77;0.77;;;24.00;66.40;;;;;;5001812;28;20046;-22
2022/08/01 12:49:12;;;;;;;0.82;0.73;;;24.00;65.90;;;;;;5003012;28;20030;-23
2022/08/01 12:51:38;;;;;;;0.68;0.68;;;24.00;65.70;;;;;;5003958;28;20050;-22
2022/08/01 12:54:04;;;;;;;1.02;0.75;;;24.00;65.70;;;;;;5001925;28;20068;-19
2022/08/01 12:56:33;;;;;;;1.73;0.70;;;24.00;65.90;;;;;;5004524;28;20049;-20